Time;durP1;ratioP1;P1;durP2;ratioP2;P2;SDS_P1;SDS_P2;PMS_P1;PMS_P2;Temp;Humidity;BMP_temperature;BMP_pressure;BME280_temperature;BME280_humidity;BME280_pressure;Samples;Min_cycle;Max_cycle;Signal;HPM_P1;HPM_P2
2023/04/24 00:00:52;;;;;;;0.50;0.30;;;11.60;99.90;;;;;;5009158;28;20277;-64
2023/04/24 00:03:21;;;;;;;0.60;0.45;;;11.50;99.90;;;;;;5012129;28;20279;-64
2023/04/24 00:05:50;;;;;;;0.60;0.50;;;11.40;99.90;;;;;;5008651;28;20221;-63
2023/04/24 00:08:19;;;;;;;0.50;0.40;;;11.20;99.90;;;;;;5012238;28;20206;-64
2023/04/24 00:10:47;;;;;;;0.50;0.30;;;11.20;99.90;;;;;;5012757;28;20240;-63
2023/04/24 00:13:15;;;;;;;0.50;0.40;;;11.20;99.90;;;;;;5011644;28;20289;-63
2023/04/24 00:15:43;;;;;;;0.57;0.47;;;11.10;99.90;;;;;;5011105;28;20248;-63
2023/04/24 00:18:11;;;;;;;0.50;0.40;;;11.10;99.90;;;;;;5011830;28;20694;-64
2023/04/24 00:20:39;;;;;;;0.50;0.40;;;11.10;99.90;;;;;;5012294;28;20269;-63
2023/04/24 00:23:07;;;;;;;0.60;0.40;;;11.00;99.90;;;;;;5012407;28;20205;-63
2023/04/24 00:25:36;;;;;;;0.70;0.70;;;11.00;99.90;;;;;;5012592;28;20225;-64
2023/04/24 00:28:04;;;;;;;0.50;0.40;;;11.00;99.90;;;;;;5011600;28;20901;-63
2023/04/24 00:30:32;;;;;;;0.50;0.40;;;11.00;99.90;;;;;;5011421;28;20201;-63
2023/04/24 00:33:00;;;;;;;0.60;0.40;;;11.00;99.90;;;;;;5012273;28;20217;-64
2023/04/24 00:35:28;;;;;;;0.60;0.43;;;11.00;99.90;;;;;;5012233;28;20229;-63
2023/04/24 00:37:56;;;;;;;0.50;0.30;;;11.00;99.90;;;;;;5012239;28;20594;-63
2023/04/24 00:40:24;;;;;;;0.60;0.43;;;11.00;99.90;;;;;;5004622;28;20209;-63
2023/04/24 00:42:53;;;;;;;0.50;0.30;;;11.00;99.90;;;;;;5012289;28;20300;-63
2023/04/24 00:45:21;;;;;;;0.50;0.40;;;11.10;99.90;;;;;;5011804;28;20221;-63
2023/04/24 00:47:49;;;;;;;0.50;0.40;;;11.10;99.90;;;;;;5011908;28;20291;-64
2023/04/24 00:50:17;;;;;;;1.30;1.05;;;11.00;99.90;;;;;;5011054;28;20209;-62
2023/04/24 00:52:45;;;;;;;0.50;0.35;;;11.00;99.90;;;;;;5003473;28;20639;-63
2023/04/24 00:55:13;;;;;;;0.50;0.38;;;11.00;99.90;;;;;;5011816;28;20251;-63
2023/04/24 00:57:41;;;;;;;0.70;0.50;;;11.00;99.90;;;;;;5011377;28;20216;-64
2023/04/24 01:00:11;;;;;;;0.68;0.45;;;10.90;99.90;;;;;;5011592;28;20288;-63
2023/04/24 01:02:43;;;;;;;0.80;0.75;;;11.00;99.90;;;;;;5011996;28;20205;-65
2023/04/24 01:05:13;;;;;;;0.50;0.40;;;10.90;99.90;;;;;;5011582;28;20239;-65
2023/04/24 01:07:43;;;;;;;0.50;0.30;;;10.90;99.90;;;;;;5011619;28;20205;-64
2023/04/24 01:10:25;;;;;;;0.95;0.60;;;10.90;99.90;;;;;;5008093;28;20681;-63
2023/04/24 01:12:53;;;;;;;0.60;0.40;;;10.90;99.90;;;;;;5008681;28;20292;-64
2023/04/24 01:15:22;;;;;;;0.50;0.40;;;10.90;99.90;;;;;;5008429;28;20295;-64
2023/04/24 01:17:50;;;;;;;0.63;0.50;;;10.90;99.90;;;;;;5005518;28;20286;-63
2023/04/24 01:20:19;;;;;;;1.17;0.85;;;10.90;99.90;;;;;;5009038;28;20209;-63
2023/04/24 01:22:48;;;;;;;0.50;0.30;;;10.80;99.90;;;;;;5005871;28;20212;-64
2023/04/24 01:25:16;;;;;;;0.60;0.40;;;10.80;99.90;;;;;;5003251;28;20252;-63
2023/04/24 01:27:44;;;;;;;0.50;0.30;;;10.70;99.90;;;;;;5006028;28;20261;-64
2023/04/24 01:30:13;;;;;;;0.50;0.38;;;10.70;99.90;;;;;;5008555;28;20208;-67
2023/04/24 01:32:44;;;;;;;0.50;0.40;;;10.70;99.90;;;;;;5008927;28;20277;-64
2023/04/24 01:35:12;;;;;;;0.50;0.40;;;10.70;99.90;;;;;;5011737;28;20221;-64
2023/04/24 01:37:39;;;;;;;2.45;0.52;;;10.80;99.90;;;;;;5011229;28;20284;-65
2023/04/24 01:40:10;;;;;;;1.58;0.40;;;10.90;99.90;;;;;;5010372;28;20315;-63
2023/04/24 01:42:38;;;;;;;0.52;0.38;;;10.90;99.90;;;;;;5011653;28;20284;-65
2023/04/24 01:45:07;;;;;;;0.50;0.30;;;10.90;99.90;;;;;;5009378;28;20229;-64
2023/04/24 01:47:35;;;;;;;0.50;0.30;;;11.10;99.90;;;;;;5011327;28;20284;-64
2023/04/24 01:50:03;;;;;;;0.50;0.30;;;11.10;99.90;;;;;;5010743;28;20205;-64
2023/04/24 01:52:33;;;;;;;0.50;0.40;;;11.00;99.90;;;;;;5007773;28;20209;-64
2023/04/24 01:55:01;;;;;;;0.60;0.40;;;11.10;99.90;;;;;;5006308;28;20237;-65
2023/04/24 01:57:31;;;;;;;0.60;0.50;;;11.00;99.90;;;;;;5007133;28;20233;-64
2023/04/24 01:59:59;;;;;;;0.70;0.52;;;11.00;99.90;;;;;;5006030;28;20335;-65
2023/04/24 02:02:28;;;;;;;0.50;0.30;;;10.80;99.90;;;;;;5004490;28;20650;-64
2023/04/24 02:04:57;;;;;;;0.60;0.50;;;10.70;99.90;;;;;;5002077;28;20236;-64
2023/04/24 02:07:24;;;;;;;0.63;0.63;;;10.80;99.90;;;;;;4999659;28;20284;-64
2023/04/24 02:09:52;;;;;;;0.50;0.30;;;10.80;99.90;;;;;;5006784;28;20289;-64
2023/04/24 02:12:20;;;;;;;0.65;0.57;;;10.70;99.90;;;;;;5005220;28;20283;-65
2023/04/24 02:14:50;;;;;;;0.50;0.40;;;10.70;99.90;;;;;;5006530;28;20689;-64
2023/04/24 02:17:18;;;;;;;0.50;0.40;;;10.70;99.90;;;;;;5000609;28;20289;-64
2023/04/24 02:19:46;;;;;;;0.50;0.40;;;10.70;99.90;;;;;;5008353;28;20220;-64
2023/04/24 02:22:14;;;;;;;0.50;0.40;;;10.70;99.90;;;;;;5004592;28;20210;-65
2023/04/24 02:24:42;;;;;;;0.60;0.40;;;10.70;99.90;;;;;;5005793;28;20308;-64
2023/04/24 02:27:11;;;;;;;0.70;0.50;;;10.70;99.90;;;;;;5008874;28;20288;-65
2023/04/24 02:29:39;;;;;;;0.80;0.60;;;10.80;99.90;;;;;;5009001;28;20216;-65
2023/04/24 02:32:11;;;;;;;0.50;0.30;;;10.80;99.90;;;;;;5008253;28;20576;-64
2023/04/24 02:34:39;;;;;;;0.55;0.45;;;10.80;99.90;;;;;;5000580;28;20232;-65
2023/04/24 02:37:07;;;;;;;0.85;0.85;;;10.80;99.90;;;;;;5006352;28;20777;-65
2023/04/24 02:39:34;;;;;;;0.50;0.30;;;10.80;99.90;;;;;;5002545;28;20296;-64
2023/04/24 02:42:02;;;;;;;0.50;0.40;;;10.80;99.90;;;;;;5007406;28;20237;-64
2023/04/24 02:44:30;;;;;;;0.50;0.30;;;10.80;99.90;;;;;;5006252;28;20229;-64
2023/04/24 02:46:58;;;;;;;0.50;0.40;;;10.80;99.90;;;;;;5005720;28;20213;-64
2023/04/24 02:49:27;;;;;;;0.55;0.43;;;10.90;99.90;;;;;;5006332;28;20288;-64
2023/04/24 02:51:55;;;;;;;0.50;0.30;;;11.00;99.90;;;;;;5007395;28;20423;-64
2023/04/24 02:54:23;;;;;;;1.13;0.50;;;11.00;99.90;;;;;;5013690;28;20773;-64
2023/04/24 02:56:51;;;;;;;0.50;0.40;;;11.10;99.90;;;;;;5014426;28;20212;-64
2023/04/24 02:59:19;;;;;;;0.50;0.40;;;11.30;99.90;;;;;;5013345;28;20308;-64
2023/04/24 03:01:46;;;;;;;0.50;0.30;;;11.40;99.90;;;;;;5012769;28;20267;-64
2023/04/24 03:04:15;;;;;;;0.50;0.30;;;11.40;99.90;;;;;;5008059;28;20206;-65
2023/04/24 03:06:45;;;;;;;0.50;0.30;;;11.40;99.90;;;;;;5009657;28;20583;-64
2023/04/24 03:09:12;;;;;;;0.50;0.40;;;11.50;99.90;;;;;;5009041;28;20284;-64
2023/04/24 03:11:40;;;;;;;0.50;0.30;;;11.40;99.90;;;;;;5002433;28;20674;-63
2023/04/24 03:14:08;;;;;;;0.55;0.38;;;11.50;99.90;;;;;;5011937;28;20212;-63
2023/04/24 03:16:36;;;;;;;0.50;0.40;;;11.40;99.90;;;;;;5011286;28;20225;-63
2023/04/24 03:19:04;;;;;;;0.50;0.30;;;11.50;99.90;;;;;;5011353;28;20678;-64
2023/04/24 03:21:32;;;;;;;0.50;0.40;;;11.50;99.90;;;;;;5008674;28;20233;-64
2023/04/24 03:24:02;;;;;;;0.50;0.30;;;11.50;99.90;;;;;;5012026;28;20205;-64
2023/04/24 03:26:29;;;;;;;0.50;0.30;;;11.40;99.90;;;;;;5010991;28;20244;-64
2023/04/24 03:28:57;;;;;;;0.50;0.38;;;11.50;99.90;;;;;;5011618;28;20209;-64
2023/04/24 03:31:25;;;;;;;0.50;0.30;;;11.40;99.90;;;;;;5011312;28;20224;-64
2023/04/24 03:33:53;;;;;;;0.50;0.40;;;11.50;99.90;;;;;;4995257;28;20276;-64
2023/04/24 03:36:21;;;;;;;0.55;0.45;;;11.50;99.90;;;;;;5008094;28;20235;-64
2023/04/24 03:38:49;;;;;;;0.60;0.55;;;11.40;99.90;;;;;;5010760;28;20263;-66
2023/04/24 03:41:18;;;;;;;0.50;0.40;;;11.40;99.90;;;;;;5007063;28;20279;-65
2023/04/24 03:43:46;;;;;;;0.50;0.30;;;11.40;99.90;;;;;;5009147;28;20211;-63
2023/04/24 03:46:14;;;;;;;0.50;0.30;;;11.40;99.90;;;;;;5007952;28;20713;-64
2023/04/24 03:48:49;;;;;;;0.50;0.30;;;11.30;99.90;;;;;;5010401;28;20204;-65
2023/04/24 03:51:17;;;;;;;0.50;0.40;;;11.30;99.90;;;;;;5006834;28;20620;-64
2023/04/24 03:53:45;;;;;;;0.50;0.40;;;11.20;99.90;;;;;;5012134;28;20236;-65
2023/04/24 03:56:13;;;;;;;0.60;0.40;;;11.20;99.90;;;;;;5012614;28;20244;-64
2023/04/24 03:58:43;;;;;;;0.52;0.40;;;11.10;99.90;;;;;;5011308;28;20211;-64
2023/04/24 04:01:11;;;;;;;0.70;0.70;;;11.00;99.90;;;;;;5004617;28;20319;-64
2023/04/24 04:03:39;;;;;;;0.60;0.43;;;10.90;99.90;;;;;;5008923;28;20214;-64
2023/04/24 04:06:08;;;;;;;0.50;0.30;;;10.90;99.90;;;;;;5005507;28;20291;-64
2023/04/24 04:08:36;;;;;;;0.50;0.30;;;10.90;99.90;;;;;;5009086;28;20255;-63
2023/04/24 04:11:03;;;;;;;0.50;0.40;;;10.90;99.90;;;;;;5003550;28;20208;-64
2023/04/24 04:13:32;;;;;;;0.50;0.40;;;10.80;99.90;;;;;;5012033;28;20204;-63
2023/04/24 04:16:01;;;;;;;0.60;0.50;;;10.80;99.90;;;;;;5010514;28;20229;-63
2023/04/24 04:18:29;;;;;;;0.55;0.43;;;10.70;99.90;;;;;;5002503;28;20209;-63
2023/04/24 04:20:57;;;;;;;0.50;0.40;;;10.80;99.90;;;;;;5006435;28;20222;-64
2023/04/24 04:23:25;;;;;;;0.60;0.40;;;10.70;99.90;;;;;;5006589;28;20603;-64
2023/04/24 04:25:54;;;;;;;0.57;0.40;;;10.60;99.90;;;;;;5003420;28;20318;-67
2023/04/24 04:28:22;;;;;;;0.60;0.55;;;10.60;99.90;;;;;;5004315;28;20322;-64
2023/04/24 04:30:53;;;;;;;0.60;0.40;;;10.50;99.90;;;;;;5006799;28;20288;-64
2023/04/24 04:33:22;;;;;;;0.50;0.30;;;10.50;99.90;;;;;;5002715;28;20209;-63
2023/04/24 04:35:51;;;;;;;0.70;0.50;;;10.50;99.90;;;;;;5006163;28;20229;-64
2023/04/24 04:38:19;;;;;;;0.60;0.50;;;10.50;99.90;;;;;;5004243;28;20201;-64
2023/04/24 04:40:47;;;;;;;0.93;0.63;;;10.60;99.90;;;;;;5004206;28;20225;-63
2023/04/24 04:43:15;;;;;;;0.60;0.43;;;10.60;99.90;;;;;;5004224;28;20293;-64
2023/04/24 04:45:44;;;;;;;0.50;0.40;;;10.60;99.90;;;;;;5004378;28;20225;-63
2023/04/24 04:48:13;;;;;;;0.60;0.40;;;10.70;99.90;;;;;;5001675;28;20205;-66
2023/04/24 04:50:42;;;;;;;0.50;0.40;;;10.80;99.90;;;;;;5009262;28;20201;-64
2023/04/24 04:53:10;;;;;;;0.70;0.60;;;10.90;99.90;;;;;;4999729;28;20201;-64
2023/04/24 04:55:38;;;;;;;0.60;0.50;;;10.80;99.90;;;;;;5001897;28;20771;-64
2023/04/24 04:58:06;;;;;;;0.50;0.40;;;10.90;99.90;;;;;;5007901;28;20220;-64
2023/04/24 05:00:35;;;;;;;0.50;0.40;;;10.80;99.90;;;;;;5004638;28;20303;-64
2023/04/24 05:03:03;;;;;;;0.60;0.40;;;10.60;99.90;;;;;;5005311;28;20205;-65
2023/04/24 05:05:48;;;;;;;0.70;0.70;;;10.50;99.90;;;;;;5005552;28;20221;-63
2023/04/24 05:08:16;;;;;;;0.60;0.47;;;10.40;99.90;;;;;;5003112;28;20212;-64
2023/04/24 05:10:54;;;;;;;0.60;0.50;;;10.30;99.90;;;;;;5002946;28;20243;-64
2023/04/24 05:13:22;;;;;;;0.60;0.43;;;10.30;99.90;;;;;;5003961;28;20584;-63
2023/04/24 05:16:05;;;;;;;0.60;0.40;;;10.30;99.90;;;;;;5001806;28;20225;-64
2023/04/24 05:18:33;;;;;;;0.60;0.50;;;10.10;99.90;;;;;;5004447;28;20328;-64
2023/04/24 05:21:03;;;;;;;1.15;0.50;;;10.00;99.90;;;;;;5011412;28;20312;-64
2023/04/24 05:23:30;;;;;;;0.73;0.50;;;10.00;99.90;;;;;;5002797;28;20652;-64
2023/04/24 05:25:58;;;;;;;0.90;0.60;;;9.90;99.90;;;;;;5004379;28;20226;-63
2023/04/24 05:28:28;;;;;;;0.90;0.80;;;9.90;99.90;;;;;;5004014;28;20284;-64
2023/04/24 05:30:56;;;;;;;0.70;0.70;;;9.90;99.90;;;;;;5003428;28;20213;-64
2023/04/24 05:33:24;;;;;;;0.60;0.50;;;9.80;99.90;;;;;;5003394;28;20205;-63
2023/04/24 05:35:52;;;;;;;0.60;0.40;;;9.80;99.90;;;;;;5003101;28;20232;-63
2023/04/24 05:38:21;;;;;;;0.60;0.55;;;9.80;99.90;;;;;;5004498;28;20742;-63
2023/04/24 05:40:49;;;;;;;0.70;0.50;;;9.80;99.90;;;;;;5005888;28;20229;-63
2023/04/24 05:43:17;;;;;;;0.70;0.40;;;9.80;99.90;;;;;;5000556;28;20628;-63
2023/04/24 05:45:45;;;;;;;0.52;0.40;;;9.70;99.90;;;;;;5007596;28;20248;-63
2023/04/24 05:48:12;;;;;;;0.65;0.57;;;9.80;99.90;;;;;;5003469;28;20207;-63
2023/04/24 05:50:40;;;;;;;0.60;0.50;;;9.80;99.90;;;;;;5002482;28;20238;-63
2023/04/24 05:53:10;;;;;;;0.75;0.70;;;9.90;99.90;;;;;;5003182;28;20237;-66
2023/04/24 05:55:39;;;;;;;0.68;0.68;;;9.80;99.90;;;;;;5022460;23;20316;-72
2023/04/24 05:58:07;;;;;;;0.60;0.50;;;9.90;99.90;;;;;;5001565;28;20217;-73
2023/04/24 06:00:35;;;;;;;1.13;0.40;;;9.90;99.90;;;;;;5000127;28;20291;-73
2023/04/24 06:03:03;;;;;;;0.60;0.60;;;10.00;99.90;;;;;;5000186;28;20267;-72
2023/04/24 06:05:32;;;;;;;0.60;0.47;;;10.00;99.90;;;;;;4992155;28;20232;-73
2023/04/24 06:08:00;;;;;;;0.50;0.45;;;9.90;99.90;;;;;;5000510;28;20201;-75
2023/04/24 06:10:28;;;;;;;0.70;0.70;;;9.80;99.90;;;;;;4991257;28;20620;-75
2023/04/24 06:13:00;;;;;;;0.60;0.60;;;9.70;99.90;;;;;;4992918;28;20244;-73
2023/04/24 06:15:30;;;;;;;0.85;0.85;;;9.70;99.90;;;;;;4987788;28;20246;-73
2023/04/24 06:17:58;;;;;;;0.65;0.60;;;9.70;99.90;;;;;;4978755;28;20204;-72
2023/04/24 06:20:27;;;;;;;0.60;0.45;;;9.80;99.90;;;;;;4983423;28;20210;-72
2023/04/24 06:22:55;;;;;;;0.60;0.55;;;9.90;99.90;;;;;;4983233;28;20228;-72
2023/04/24 06:25:25;;;;;;;0.88;0.70;;;10.00;99.90;;;;;;4985462;28;20904;-72
2023/04/24 06:27:53;;;;;;;0.68;0.55;;;10.00;99.90;;;;;;4989306;28;20272;-72
2023/04/24 06:30:23;;;;;;;0.60;0.50;;;10.10;99.90;;;;;;4993875;28;20289;-72
2023/04/24 06:32:51;;;;;;;0.50;0.40;;;10.10;99.90;;;;;;4995073;28;20232;-73
2023/04/24 06:35:19;;;;;;;0.82;0.75;;;10.10;99.90;;;;;;4994375;28;20260;-70
2023/04/24 06:37:47;;;;;;;0.50;0.40;;;10.10;99.90;;;;;;4994869;28;20214;-70
2023/04/24 06:40:15;;;;;;;0.60;0.50;;;10.20;99.90;;;;;;4994925;28;20238;-73
2023/04/24 06:42:43;;;;;;;0.70;0.65;;;10.40;99.90;;;;;;4994433;28;20233;-72
2023/04/24 06:45:11;;;;;;;0.60;0.50;;;10.70;99.90;;;;;;4994817;28;20308;-73
2023/04/24 06:47:40;;;;;;;0.50;0.40;;;10.90;99.90;;;;;;4994791;28;20809;-73
2023/04/24 06:50:09;;;;;;;0.60;0.60;;;11.00;99.90;;;;;;4994590;28;20205;-72
2023/04/24 06:52:37;;;;;;;0.60;0.50;;;11.10;99.90;;;;;;4994280;28;20288;-73
2023/04/24 06:55:06;;;;;;;0.52;0.38;;;11.30;99.90;;;;;;4988065;28;20688;-73
2023/04/24 06:57:34;;;;;;;0.90;0.55;;;11.40;99.90;;;;;;4993263;28;20296;-73
2023/04/24 07:00:02;;;;;;;0.50;0.40;;;11.50;99.90;;;;;;4994326;28;20264;-73
2023/04/24 07:02:31;;;;;;;0.50;0.40;;;11.60;99.90;;;;;;4986328;28;20313;-73
2023/04/24 07:05:01;;;;;;;1.13;0.60;;;11.80;99.90;;;;;;4981572;28;20259;-73
2023/04/24 07:07:28;;;;;;;0.60;0.40;;;12.00;99.90;;;;;;4981986;28;20230;-73
2023/04/24 07:09:57;;;;;;;0.60;0.50;;;12.10;99.90;;;;;;4983399;28;20642;-73
2023/04/24 07:12:25;;;;;;;0.60;0.40;;;12.30;99.90;;;;;;4982909;28;20298;-71
2023/04/24 07:14:53;;;;;;;0.60;0.40;;;12.10;99.90;;;;;;4978602;28;20313;-72
2023/04/24 07:17:22;;;;;;;0.60;0.52;;;12.00;99.90;;;;;;4975160;28;20238;-71
2023/04/24 07:19:50;;;;;;;0.60;0.40;;;12.00;99.90;;;;;;4994525;28;20210;-72
2023/04/24 07:22:19;;;;;;;0.60;0.55;;;11.80;99.90;;;;;;4994278;28;20312;-72
2023/04/24 07:24:47;;;;;;;0.60;0.40;;;11.80;99.90;;;;;;4984185;28;20206;-72
2023/04/24 07:27:14;;;;;;;0.50;0.40;;;11.90;99.90;;;;;;4990667;28;20310;-72
2023/04/24 07:29:43;;;;;;;0.60;0.52;;;12.00;99.90;;;;;;4983532;28;20275;-73
2023/04/24 07:32:12;;;;;;;0.60;0.52;;;12.10;99.90;;;;;;4990704;28;20669;-70
2023/04/24 07:34:40;;;;;;;0.50;0.40;;;12.20;99.90;;;;;;4991917;28;20300;-72
2023/04/24 07:37:08;;;;;;;0.50;0.40;;;12.40;99.90;;;;;;4984430;28;20294;-71
2023/04/24 07:39:37;;;;;;;0.77;0.50;;;12.40;99.90;;;;;;4977210;28;20692;-72
2023/04/24 07:42:05;;;;;;;0.50;0.30;;;12.60;99.90;;;;;;4983908;28;20229;-72
2023/04/24 07:44:33;;;;;;;0.52;0.40;;;12.70;99.90;;;;;;4979534;28;20239;-72
2023/04/24 07:47:01;;;;;;;0.60;0.60;;;12.70;99.90;;;;;;4978678;28;20244;-72
2023/04/24 07:49:28;;;;;;;0.63;0.57;;;12.60;99.90;;;;;;4987246;28;20215;-73
2023/04/24 07:51:56;;;;;;;0.70;0.40;;;12.50;99.90;;;;;;4985697;28;20293;-72
2023/04/24 07:54:24;;;;;;;0.50;0.40;;;12.60;99.90;;;;;;4986559;28;20202;-70
2023/04/24 07:56:53;;;;;;;0.50;0.40;;;12.70;99.90;;;;;;4997345;28;20272;-71
2023/04/24 07:59:21;;;;;;;0.60;0.40;;;12.80;99.90;;;;;;4989119;28;20231;-72
2023/04/24 08:01:49;;;;;;;0.60;0.50;;;13.00;99.90;;;;;;4977419;28;20236;-72
2023/04/24 08:04:17;;;;;;;0.50;0.30;;;13.20;99.90;;;;;;4995183;28;20293;-72
2023/04/24 08:06:45;;;;;;;0.50;0.40;;;13.20;99.90;;;;;;4976877;28;20234;-72
2023/04/24 08:09:13;;;;;;;0.60;0.50;;;13.20;99.90;;;;;;4983393;28;20206;-72
2023/04/24 08:11:41;;;;;;;1.00;0.40;;;13.30;99.90;;;;;;4981626;28;20847;-71
2023/04/24 08:14:12;;;;;;;0.75;0.75;;;13.60;99.90;;;;;;4974292;28;20313;-73
2023/04/24 08:16:40;;;;;;;0.60;0.40;;;14.00;99.90;;;;;;4974096;28;20260;-74
2023/04/24 08:19:08;;;;;;;0.60;0.52;;;14.20;99.90;;;;;;4984023;28;20213;-72
2023/04/24 08:21:36;;;;;;;0.60;0.40;;;14.40;99.90;;;;;;4985168;28;20235;-72
2023/04/24 08:24:07;;;;;;;0.50;0.40;;;14.40;99.90;;;;;;4987776;28;20292;-73
2023/04/24 08:26:35;;;;;;;0.60;0.50;;;14.40;99.90;;;;;;4992907;28;20740;-73
2023/04/24 08:29:03;;;;;;;0.60;0.55;;;14.30;99.90;;;;;;4987804;28;20738;-72
2023/04/24 08:31:33;;;;;;;0.50;0.40;;;14.00;99.90;;;;;;4973509;28;20262;-73
2023/04/24 08:34:01;;;;;;;0.60;0.57;;;13.90;99.90;;;;;;4978351;28;20679;-73
2023/04/24 08:36:29;;;;;;;0.60;0.40;;;13.70;99.90;;;;;;4985217;28;20294;-72
2023/04/24 08:39:13;;;;;;;0.50;0.40;;;13.40;99.90;;;;;;4979738;28;20202;-71
2023/04/24 08:41:42;;;;;;;0.60;0.50;;;13.20;99.90;;;;;;4974344;28;20262;-72
2023/04/24 08:44:11;;;;;;;0.60;0.40;;;12.90;99.90;;;;;;4972881;28;20219;-72
2023/04/24 08:46:41;;;;;;;0.70;0.50;;;12.80;99.90;;;;;;4982896;28;20230;-73
2023/04/24 08:49:09;;;;;;;0.60;0.60;;;12.60;99.90;;;;;;4978316;28;20578;-72
2023/04/24 08:51:38;;;;;;;0.60;0.43;;;12.50;99.90;;;;;;4972503;28;20306;-73
2023/04/24 08:54:07;;;;;;;0.65;0.65;;;12.30;99.90;;;;;;4978217;28;20249;-72
2023/04/24 08:56:39;;;;;;;0.60;0.50;;;12.20;99.90;;;;;;4991691;28;20244;-72
2023/04/24 08:59:07;;;;;;;0.50;0.40;;;12.10;99.90;;;;;;4992373;28;20244;-72
2023/04/24 09:01:39;;;;;;;0.50;0.30;;;12.00;99.90;;;;;;4975036;28;20688;-72
2023/04/24 09:04:10;;;;;;;0.60;0.50;;;12.00;99.90;;;;;;4980977;28;20248;-72
2023/04/24 09:06:40;;;;;;;0.55;0.40;;;12.00;99.90;;;;;;4974322;28;20309;-72
2023/04/24 09:09:09;;;;;;;0.70;0.70;;;11.90;99.90;;;;;;4985379;28;20213;-72
2023/04/24 09:11:38;;;;;;;0.50;0.50;;;11.90;99.90;;;;;;4982911;28;20292;-71
2023/04/24 09:14:06;;;;;;;0.60;0.43;;;12.00;99.90;;;;;;4972767;28;20209;-72
2023/04/24 09:16:34;;;;;;;0.80;0.80;;;12.10;99.90;;;;;;4980270;28;20312;-72
2023/04/24 09:19:04;;;;;;;0.50;0.40;;;12.20;99.90;;;;;;4972585;28;20641;-72
2023/04/24 09:21:35;;;;;;;0.60;0.40;;;12.30;99.90;;;;;;4972513;28;20249;-72
2023/04/24 09:24:06;;;;;;;0.75;0.75;;;12.30;99.90;;;;;;4972517;28;20222;-70
2023/04/24 09:26:37;;;;;;;0.50;0.30;;;12.10;99.90;;;;;;4990741;28;20230;-72
2023/04/24 09:29:05;;;;;;;0.50;0.40;;;12.00;99.90;;;;;;4983450;28;20714;-72
2023/04/24 09:31:33;;;;;;;0.50;0.40;;;12.00;99.90;;;;;;4975600;28;20230;-71
2023/04/24 09:34:03;;;;;;;2.70;1.33;;;11.90;99.90;;;;;;4987379;28;20195;-72
2023/04/24 09:36:37;;;;;;;0.50;0.40;;;12.00;99.90;;;;;;4980266;28;20222;-71
2023/04/24 09:39:08;;;;;;;0.60;0.50;;;12.20;99.90;;;;;;4972569;28;20203;-72
2023/04/24 09:41:45;;;;;;;0.60;0.52;;;12.30;99.90;;;;;;4988221;28;20296;-70
2023/04/24 09:44:15;;;;;;;0.50;0.40;;;12.40;99.90;;;;;;4978619;28;20220;-71
2023/04/24 09:46:43;;;;;;;0.68;0.40;;;12.40;99.90;;;;;;4971905;28;20258;-71
2023/04/24 09:49:16;;;;;;;0.52;0.40;;;12.70;99.90;;;;;;4972154;28;20596;-72
2023/04/24 09:51:45;;;;;;;0.60;0.40;;;12.90;99.90;;;;;;4985520;28;20209;-70
2023/04/24 09:54:16;;;;;;;0.50;0.30;;;13.00;99.90;;;;;;4972258;28;20286;-72
2023/04/24 09:56:46;;;;;;;1.60;0.80;;;13.00;99.90;;;;;;4991138;28;20276;-72
2023/04/24 09:59:14;;;;;;;1.33;0.57;;;13.10;99.90;;;;;;4991163;28;20292;-71
2023/04/24 10:01:44;;;;;;;0.60;0.50;;;13.00;99.90;;;;;;4981583;28;20242;-71
2023/04/24 10:04:18;;;;;;;0.50;0.30;;;13.00;99.90;;;;;;4979998;28;20727;-72
2023/04/24 10:06:48;;;;;;;0.65;0.55;;;12.90;99.90;;;;;;4971713;28;20237;-71
2023/04/24 10:09:16;;;;;;;0.60;0.43;;;13.00;99.90;;;;;;4972025;28;20611;-71
2023/04/24 10:11:46;;;;;;;0.50;0.30;;;12.90;99.90;;;;;;4954512;28;20224;-72
2023/04/24 10:14:15;;;;;;;1.05;0.63;;;12.70;99.90;;;;;;4977660;28;20280;-71
2023/04/24 10:16:44;;;;;;;0.50;0.30;;;12.60;99.90;;;;;;4986113;28;20603;-72
2023/04/24 10:19:13;;;;;;;0.50;0.40;;;12.50;99.90;;;;;;4971816;28;20226;-72
2023/04/24 10:21:45;;;;;;;0.50;0.30;;;12.40;99.90;;;;;;4973163;28;20203;-72
2023/04/24 10:24:16;;;;;;;0.60;0.40;;;12.30;99.90;;;;;;4983058;28;20616;-72
2023/04/24 10:26:45;;;;;;;0.50;0.40;;;12.20;99.90;;;;;;4990969;28;20284;-71
2023/04/24 10:29:16;;;;;;;0.50;0.30;;;12.20;99.90;;;;;;4985569;28;20206;-72
2023/04/24 10:31:45;;;;;;;0.50;0.30;;;12.10;99.90;;;;;;4977666;28;20213;-72
2023/04/24 10:34:15;;;;;;;0.50;0.38;;;11.90;99.90;;;;;;4979759;28;20237;-71
2023/04/24 10:36:48;;;;;;;0.60;0.40;;;11.90;99.90;;;;;;4971578;28;20234;-71
2023/04/24 10:39:20;;;;;;;0.60;0.50;;;11.90;99.90;;;;;;4972043;28;20222;-71
2023/04/24 10:41:57;;;;;;;0.60;0.40;;;12.00;99.90;;;;;;4979605;28;20567;-72
2023/04/24 10:44:26;;;;;;;0.50;0.40;;;12.10;99.90;;;;;;4971520;28;20637;-71
2023/04/24 10:46:55;;;;;;;0.50;0.30;;;12.20;99.90;;;;;;4981744;28;20230;-72
2023/04/24 10:49:30;;;;;;;0.50;0.40;;;12.50;99.90;;;;;;4983952;28;20213;-71
2023/04/24 10:52:02;;;;;;;0.55;0.38;;;12.70;99.90;;;;;;4971775;28;20260;-71
2023/04/24 10:54:36;;;;;;;0.50;0.40;;;12.80;99.90;;;;;;4974058;28;20561;-71
2023/04/24 10:57:36;;;;;;;0.50;0.40;;;13.00;99.90;;;;;;4990856;28;20306;-71
2023/04/24 11:00:20;;;;;;;1.02;0.82;;;13.50;99.90;;;;;;4974733;28;20231;-72
2023/04/24 11:02:50;;;;;;;0.50;0.40;;;14.20;99.90;;;;;;4979497;28;20296;-71
2023/04/24 11:05:20;;;;;;;0.50;0.43;;;14.50;99.90;;;;;;4981431;28;20225;-71
2023/04/24 11:08:13;;;;;;;0.50;0.30;;;14.60;99.90;;;;;;4980720;28;20260;-70
2023/04/24 11:10:45;;;;;;;0.50;0.40;;;14.40;99.90;;;;;;4971418;28;20206;-71
2023/04/24 11:13:16;;;;;;;0.60;0.40;;;14.20;99.90;;;;;;4972680;28;20293;-72
2023/04/24 11:15:44;;;;;;;0.50;0.30;;;14.00;99.90;;;;;;4982763;28;20229;-72
2023/04/24 11:18:16;;;;;;;0.50;0.30;;;14.00;99.90;;;;;;4979627;28;20288;-72
2023/04/24 11:20:45;;;;;;;0.73;0.73;;;13.80;99.90;;;;;;4984712;28;20301;-71
2023/04/24 11:23:14;;;;;;;0.50;0.38;;;13.70;99.90;;;;;;4982998;28;20207;-73
2023/04/24 11:25:44;;;;;;;0.50;0.30;;;13.60;99.90;;;;;;4986348;28;20222;-72
2023/04/24 11:28:17;;;;;;;0.50;0.30;;;13.50;99.90;;;;;;4993714;28;20296;-72
2023/04/24 11:30:44;;;;;;;0.50;0.40;;;14.10;99.90;;;;;;4976711;28;20213;-72
2023/04/24 11:33:20;;;;;;;0.50;0.30;;;14.70;99.90;;;;;;4975010;28;20301;-73
2023/04/24 11:35:48;;;;;;;0.60;0.50;;;14.90;99.90;;;;;;4982441;28;20230;-72
2023/04/24 11:38:18;;;;;;;0.50;0.30;;;15.20;99.90;;;;;;4984879;28;20212;-74
2023/04/24 11:40:54;;;;;;;0.70;0.65;;;15.50;99.90;;;;;;4975622;28;20273;-73
2023/04/24 11:43:22;;;;;;;0.60;0.50;;;16.00;99.90;;;;;;4980732;28;20226;-73
2023/04/24 11:45:50;;;;;;;0.50;0.38;;;16.20;99.90;;;;;;4975544;28;20265;-74
2023/04/24 11:48:20;;;;;;;0.50;0.40;;;16.80;99.90;;;;;;4973981;28;20202;-73
2023/04/24 11:50:51;;;;;;;0.60;0.40;;;16.90;99.90;;;;;;4981973;28;20595;-74
2023/04/24 11:53:21;;;;;;;0.50;0.30;;;16.30;99.90;;;;;;4991220;28;20240;-73
2023/04/24 11:55:49;;;;;;;0.50;0.30;;;15.70;99.90;;;;;;5015108;23;20288;-71
2023/04/24 11:58:22;;;;;;;0.57;0.38;;;15.30;99.90;;;;;;4985105;28;20645;-70
2023/04/24 12:00:57;;;;;;;0.50;0.40;;;14.60;99.90;;;;;;4975303;28;20210;-73
2023/04/24 12:03:25;;;;;;;0.50;0.30;;;13.90;99.90;;;;;;4980478;28;20289;-72
2023/04/24 12:05:53;;;;;;;0.50;0.40;;;13.00;99.90;;;;;;4976969;28;20234;-72
2023/04/24 12:08:29;;;;;;;0.50;0.30;;;12.40;99.90;;;;;;4984926;28;20259;-72
2023/04/24 12:10:57;;;;;;;0.50;0.40;;;12.10;99.90;;;;;;4974426;28;20675;-71
2023/04/24 12:13:27;;;;;;;0.95;0.95;;;12.10;99.90;;;;;;4973957;28;20261;-70
2023/04/24 12:15:55;;;;;;;0.50;0.40;;;12.00;99.90;;;;;;4973373;28;20250;-71
2023/04/24 12:18:24;;;;;;;0.50;0.30;;;11.80;99.90;;;;;;4981377;28;20698;-71
2023/04/24 12:20:52;;;;;;;0.50;0.40;;;11.70;99.90;;;;;;4973619;28;20241;-72
2023/04/24 12:23:35;;;;;;;0.50;0.40;;;11.60;99.90;;;;;;4973650;28;20210;-71
2023/04/24 12:26:05;;;;;;;0.50;0.30;;;11.60;99.90;;;;;;4984774;28;20233;-73
2023/04/24 12:28:38;;;;;;;0.70;0.50;;;11.70;99.90;;;;;;4992691;28;20206;-71
2023/04/24 12:31:07;;;;;;;0.50;0.47;;;11.90;99.90;;;;;;4996195;28;20206;-73
2023/04/24 12:33:36;;;;;;;0.95;0.50;;;12.10;99.90;;;;;;4999961;28;20247;-72
2023/04/24 12:36:05;;;;;;;1.25;0.60;;;12.20;99.90;;;;;;4992265;28;20358;-72
2023/04/24 12:38:39;;;;;;;0.70;0.70;;;12.40;99.90;;;;;;5000004;28;20232;-71
2023/04/24 12:41:10;;;;;;;0.60;0.43;;;12.60;99.90;;;;;;5000334;28;20233;-73
2023/04/24 12:43:39;;;;;;;0.60;0.50;;;12.80;99.90;;;;;;4996740;28;20617;-71
2023/04/24 12:46:07;;;;;;;0.80;0.77;;;13.00;99.90;;;;;;4977972;28;20685;-70
2023/04/24 12:48:35;;;;;;;0.60;0.40;;;13.20;99.90;;;;;;4992290;28;20229;-70
2023/04/24 12:51:03;;;;;;;0.80;0.80;;;14.00;99.90;;;;;;4992028;28;20206;-69
2023/04/24 12:53:31;;;;;;;1.30;0.90;;;14.90;99.90;;;;;;4992368;28;20210;-69
2023/04/24 12:55:59;;;;;;;0.50;0.40;;;15.50;99.90;;;;;;4983940;28;20305;-68
2023/04/24 12:58:27;;;;;;;1.27;0.63;;;15.80;99.90;;;;;;4992184;28;20212;-69